KLIC/LIC METAR and TAF weather

Enter ICAO airport designator
Station Type Date Time Source
KLIC METAR 2019/06/26 19:55 UTC NOAA

KLIC 261955Z AUTO 16011KT 10SM CLR 28/10 A3007 RMK AO2 SLP108 T02780100


Station Type Date Time Source
KLIC Decoded METAR 2019/06/26 19:55 UTC NOAA

LIMON MUNICIPAL AIRPORT, CO, United States (KLIC) 39-16N 103-40W 1630M
Jun 26, 2019 - 03:55 PM EDT / 2019.06.26 1955 UTC
Wind: from the SSE (160 degrees) at 13 MPH (11 KT):0
Visibility: 10 mile(s):0
Sky conditions: clear
Temperature: 82.0 F (27.8 C)
Dew Point: 50.0 F (10.0 C)
Relative Humidity: 32%
Pressure (altimeter): 30.07 in. Hg (1018 hPa)
ob: KLIC 261955Z AUTO 16011KT 10SM CLR 28/10 A3007 RMK AO2 SLP108 T02780100
cycle: 20

Station Type Date Time Source
KLIC TAF UTC NOAA

Error!

Example: see airport list